sensor_id;sensor_type;location;lat;lon;timestamp;pressure;altitude;pressure_sealevel;temperature;humidity
21821;BME280;11073;48.586;12.066;2022-08-05T00:01:31;96200.75;;;27.02;44.27
21821;BME280;11073;48.586;12.066;2022-08-05T00:04:15;96197.38;;;26.97;44.45
21821;BME280;11073;48.586;12.066;2022-08-05T00:06:46;96197.63;;;26.91;44.61
21821;BME280;11073;48.586;12.066;2022-08-05T00:09:18;96206.88;;;26.96;44.38
21821;BME280;11073;48.586;12.066;2022-08-05T00:11:47;96209.88;;;26.90;44.23
21821;BME280;11073;48.586;12.066;2022-08-05T00:14:26;96205.16;;;26.79;44.67
21821;BME280;11073;48.586;12.066;2022-08-05T00:16:58;96210.38;;;26.68;44.75
21821;BME280;11073;48.586;12.066;2022-08-05T00:19:28;96186.69;;;26.58;45.06
21821;BME280;11073;48.586;12.066;2022-08-05T00:22:01;96194.75;;;26.63;45.05
21821;BME280;11073;48.586;12.066;2022-08-05T00:24:31;96202.50;;;26.58;45.05
21821;BME280;11073;48.586;12.066;2022-08-05T00:27:00;96193.28;;;26.54;45.22
21821;BME280;11073;48.586;12.066;2022-08-05T00:29:37;96192.69;;;26.48;45.25
21821;BME280;11073;48.586;12.066;2022-08-05T00:32:06;96173.38;;;26.39;45.42
21821;BME280;11073;48.586;12.066;2022-08-05T00:34:42;96193.72;;;26.44;45.60
21821;BME280;11073;48.586;12.066;2022-08-05T00:37:33;96193.13;;;26.38;45.79
21821;BME280;11073;48.586;12.066;2022-08-05T00:40:21;96190.47;;;26.29;45.81
21821;BME280;11073;48.586;12.066;2022-08-05T00:42:57;96199.09;;;26.28;45.91
21821;BME280;11073;48.586;12.066;2022-08-05T00:45:25;96185.94;;;26.25;45.92
21821;BME280;11073;48.586;12.066;2022-08-05T00:48:11;96191.34;;;26.21;46.17
21821;BME280;11073;48.586;12.066;2022-08-05T00:50:41;96185.69;;;26.18;46.24
21821;BME280;11073;48.586;12.066;2022-08-05T00:53:15;96183.03;;;26.21;46.35
21821;BME280;11073;48.586;12.066;2022-08-05T00:56:04;96178.41;;;26.13;46.42
21821;BME280;11073;48.586;12.066;2022-08-05T00:58:34;96181.84;;;25.98;46.45
21821;BME280;11073;48.586;12.066;2022-08-05T01:01:03;96180.59;;;25.95;46.73
21821;BME280;11073;48.586;12.066;2022-08-05T01:03:35;96181.19;;;26.01;nan
21821;BME280;11073;48.586;12.066;2022-08-05T01:06:04;96183.97;;;26.01;46.89
21821;BME280;11073;48.586;12.066;2022-08-05T01:08:38;96182.31;;;26.00;46.95
21821;BME280;11073;48.586;12.066;2022-08-05T01:11:14;96175.03;;;25.95;46.71
21821;BME280;11073;48.586;12.066;2022-08-05T01:13:59;96177.34;;;25.93;46.97
21821;BME280;11073;48.586;12.066;2022-08-05T01:16:43;96174.34;;;25.86;47.16
21821;BME280;11073;48.586;12.066;2022-08-05T01:19:24;96177.31;;;25.81;47.27
21821;BME280;11073;48.586;12.066;2022-08-05T01:22:25;96169.81;;;25.81;47.47
21821;BME280;11073;48.586;12.066;2022-08-05T01:25:04;96169.91;;;25.73;47.45
21821;BME280;11073;48.586;12.066;2022-08-05T01:27:48;96179.50;;;25.75;47.50
21821;BME280;11073;48.586;12.066;2022-08-05T01:30:25;96165.69;;;25.67;47.61
21821;BME280;11073;48.586;12.066;2022-08-05T01:33:03;96164.66;;;25.59;47.92
21821;BME280;11073;48.586;12.066;2022-08-05T01:35:38;96167.63;;;25.54;47.67
21821;BME280;11073;48.586;12.066;2022-08-05T01:38:20;96172.25;;;25.50;47.79
21821;BME280;11073;48.586;12.066;2022-08-05T01:40:57;96170.41;;;25.54;48.03
21821;BME280;11073;48.586;12.066;2022-08-05T01:43:29;96177.28;;;25.48;48.02
21821;BME280;11073;48.586;12.066;2022-08-05T01:46:02;96173.00;;;25.38;48.08
21821;BME280;11073;48.586;12.066;2022-08-05T01:48:43;96168.94;;;25.36;48.21
21821;BME280;11073;48.586;12.066;2022-08-05T01:51:17;96173.69;;;25.35;48.31
21821;BME280;11073;48.586;12.066;2022-08-05T01:53:49;96173.34;;;25.37;48.45
21821;BME280;11073;48.586;12.066;2022-08-05T01:56:28;96171.38;;;25.37;48.23
21821;BME280;11073;48.586;12.066;2022-08-05T01:59:21;96175.16;;;25.33;48.24
21821;BME280;11073;48.586;12.066;2022-08-05T02:01:53;96163.81;;;25.25;48.29
21821;BME280;11073;48.586;12.066;2022-08-05T02:04:27;96173.56;;;25.11;48.51
21821;BME280;11073;48.586;12.066;2022-08-05T02:07:00;96178.63;;;25.09;48.49
21821;BME280;11073;48.586;12.066;2022-08-05T02:09:32;96178.66;;;25.00;48.84
21821;BME280;11073;48.586;12.066;2022-08-05T02:12:05;96182.25;;;25.00;49.03
21821;BME280;11073;48.586;12.066;2022-08-05T02:14:44;96189.75;;;25.00;49.04
21821;BME280;11073;48.586;12.066;2022-08-05T02:17:19;96179.66;;;24.95;49.18
21821;BME280;11073;48.586;12.066;2022-08-05T02:20:18;96175.81;;;24.88;49.27
21821;BME280;11073;48.586;12.066;2022-08-05T02:22:54;96183.13;;;24.92;49.20
21821;BME280;11073;48.586;12.066;2022-08-05T02:25:25;96177.78;;;24.87;49.37
21821;BME280;11073;48.586;12.066;2022-08-05T02:28:01;96166.16;;;24.73;49.35
21821;BME280;11073;48.586;12.066;2022-08-05T02:30:39;96174.13;;;24.74;49.52
21821;BME280;11073;48.586;12.066;2022-08-05T02:33:21;96183.09;;;24.71;49.69
21821;BME280;11073;48.586;12.066;2022-08-05T02:36:09;96177.06;;;24.69;49.85
21821;BME280;11073;48.586;12.066;2022-08-05T02:38:44;96178.22;;;24.68;49.88
21821;BME280;11073;48.586;12.066;2022-08-05T02:41:22;96168.72;;;24.57;49.97
21821;BME280;11073;48.586;12.066;2022-08-05T02:44:10;96185.94;;;24.63;50.19
21821;BME280;11073;48.586;12.066;2022-08-05T02:46:44;96179.97;;;24.52;49.96
21821;BME280;11073;48.586;12.066;2022-08-05T02:49:30;96185.50;;;24.52;50.16
21821;BME280;11073;48.586;12.066;2022-08-05T02:52:06;96180.75;;;24.53;50.38
21821;BME280;11073;48.586;12.066;2022-08-05T02:54:37;96182.44;;;24.45;50.37
21821;BME280;11073;48.586;12.066;2022-08-05T02:57:20;96185.13;;;24.24;50.96
21821;BME280;11073;48.586;12.066;2022-08-05T03:00:11;96170.66;;;24.18;51.04
21821;BME280;11073;48.586;12.066;2022-08-05T03:02:44;96182.22;;;24.20;51.06
21821;BME280;11073;48.586;12.066;2022-08-05T03:05:14;96170.00;;;24.21;51.02
21821;BME280;11073;48.586;12.066;2022-08-05T03:07:48;96179.75;;;24.28;51.32
21821;BME280;11073;48.586;12.066;2022-08-05T03:10:35;96181.88;;;24.22;51.32
21821;BME280;11073;48.586;12.066;2022-08-05T03:13:12;96169.72;;;24.14;51.28
21821;BME280;11073;48.586;12.066;2022-08-05T03:15:44;96152.19;;;24.02;51.33
21821;BME280;11073;48.586;12.066;2022-08-05T03:18:15;96151.91;;;23.94;51.85
21821;BME280;11073;48.586;12.066;2022-08-05T03:20:51;96161.00;;;23.95;52.00
21821;BME280;11073;48.586;12.066;2022-08-05T03:23:21;96155.00;;;23.93;52.50
21821;BME280;11073;48.586;12.066;2022-08-05T03:25:50;96158.41;;;23.90;52.46
21821;BME280;11073;48.586;12.066;2022-08-05T03:28:39;96152.22;;;23.93;52.38
21821;BME280;11073;48.586;12.066;2022-08-05T03:31:09;96151.56;;;23.96;52.57
21821;BME280;11073;48.586;12.066;2022-08-05T03:34:00;96149.00;;;23.91;52.50
21821;BME280;11073;48.586;12.066;2022-08-05T03:36:29;96136.63;;;23.88;52.41
21821;BME280;11073;48.586;12.066;2022-08-05T03:39:05;96141.81;;;23.99;52.34
21821;BME280;11073;48.586;12.066;2022-08-05T03:41:39;96139.69;;;23.96;52.35
21821;BME280;11073;48.586;12.066;2022-08-05T03:44:13;96134.69;;;23.89;52.10
21821;BME280;11073;48.586;12.066;2022-08-05T03:46:46;96148.31;;;23.94;52.36
21821;BME280;11073;48.586;12.066;2022-08-05T03:49:16;96138.25;;;23.89;52.63
21821;BME280;11073;48.586;12.066;2022-08-05T03:52:01;96127.09;;;23.77;52.45
21821;BME280;11073;48.586;12.066;2022-08-05T03:54:56;96137.34;;;23.77;52.54
21821;BME280;11073;48.586;12.066;2022-08-05T03:57:49;96136.53;;;23.67;53.04
21821;BME280;11073;48.586;12.066;2022-08-05T04:00:20;96134.75;;;23.72;53.04
21821;BME280;11073;48.586;12.066;2022-08-05T04:02:53;96139.59;;;23.75;52.67
21821;BME280;11073;48.586;12.066;2022-08-05T04:05:30;96133.59;;;23.73;52.64
21821;BME280;11073;48.586;12.066;2022-08-05T04:08:02;96137.19;;;23.73;52.58
21821;BME280;11073;48.586;12.066;2022-08-05T04:10:53;96141.75;;;23.69;52.62
21821;BME280;11073;48.586;12.066;2022-08-05T04:13:22;96132.66;;;23.69;52.63
21821;BME280;11073;48.586;12.066;2022-08-05T04:15:54;96138.69;;;23.62;52.84
21821;BME280;11073;48.586;12.066;2022-08-05T04:18:31;96145.84;;;23.54;52.91
21821;BME280;11073;48.586;12.066;2022-08-05T04:21:03;96145.97;;;23.58;53.02
21821;BME280;11073;48.586;12.066;2022-08-05T04:23:33;96150.34;;;23.59;53.36
21821;BME280;11073;48.586;12.066;2022-08-05T04:26:23;96147.78;;;23.62;53.25
21821;BME280;11073;48.586;12.066;2022-08-05T04:28:58;96158.16;;;23.65;53.08
21821;BME280;11073;48.586;12.066;2022-08-05T04:31:33;96162.06;;;23.64;53.31
21821;BME280;11073;48.586;12.066;2022-08-05T04:34:05;96164.16;;;23.67;53.38
21821;BME280;11073;48.586;12.066;2022-08-05T04:36:56;96162.06;;;23.64;53.32
21821;BME280;11073;48.586;12.066;2022-08-05T04:39:25;96173.91;;;23.74;52.96
21821;BME280;11073;48.586;12.066;2022-08-05T04:41:54;96164.16;;;23.76;53.21
21821;BME280;11073;48.586;12.066;2022-08-05T04:44:23;96169.69;;;23.67;53.21
21821;BME280;11073;48.586;12.066;2022-08-05T04:46:57;96168.41;;;23.56;53.60
21821;BME280;11073;48.586;12.066;2022-08-05T04:49:37;96158.19;;;23.48;53.53
21821;BME280;11073;48.586;12.066;2022-08-05T04:52:27;96176.84;;;23.60;53.54
21821;BME280;11073;48.586;12.066;2022-08-05T04:55:01;96185.13;;;23.60;53.63
21821;BME280;11073;48.586;12.066;2022-08-05T04:57:43;96184.00;;;23.61;53.48
21821;BME280;11073;48.586;12.066;2022-08-05T05:00:14;96175.72;;;23.61;53.64
21821;BME280;11073;48.586;12.066;2022-08-05T05:02:43;96180.44;;;23.60;53.36
21821;BME280;11073;48.586;12.066;2022-08-05T05:05:12;96174.25;;;23.55;53.62
21821;BME280;11073;48.586;12.066;2022-08-05T05:08:00;96179.63;;;23.51;54.28
21821;BME280;11073;48.586;12.066;2022-08-05T05:10:30;96177.38;;;23.62;54.38
21821;BME280;11073;48.586;12.066;2022-08-05T05:13:00;96177.19;;;23.67;54.59
21821;BME280;11073;48.586;12.066;2022-08-05T05:15:31;96168.88;;;23.76;54.53
21821;BME280;11073;48.586;12.066;2022-08-05T05:18:21;96185.44;;;23.84;54.16
21821;BME280;11073;48.586;12.066;2022-08-05T05:21:01;96175.84;;;23.82;54.43
21821;BME280;11073;48.586;12.066;2022-08-05T05:23:33;96189.00;;;23.85;54.27
21821;BME280;11073;48.586;12.066;2022-08-05T05:26:22;96219.88;;;23.87;54.35
21821;BME280;11073;48.586;12.066;2022-08-05T05:28:59;96224.75;;;23.90;54.55
21821;BME280;11073;48.586;12.066;2022-08-05T05:31:41;96226.19;;;23.96;54.63
21821;BME280;11073;48.586;12.066;2022-08-05T05:34:12;96212.88;;;23.89;54.76
21821;BME280;11073;48.586;12.066;2022-08-05T05:36:42;96221.50;;;23.88;55.11
21821;BME280;11073;48.586;12.066;2022-08-05T05:39:14;96218.56;;;23.93;54.76
21821;BME280;11073;48.586;12.066;2022-08-05T05:41:45;96214.50;;;23.99;55.26
21821;BME280;11073;48.586;12.066;2022-08-05T05:44:21;96220.00;;;24.08;55.44
21821;BME280;11073;48.586;12.066;2022-08-05T05:47:03;96220.75;;;24.17;55.29
21821;BME280;11073;48.586;12.066;2022-08-05T05:49:48;96217.16;;;24.25;55.07
21821;BME280;11073;48.586;12.066;2022-08-05T05:52:27;96216.16;;;24.30;55.03
21821;BME280;11073;48.586;12.066;2022-08-05T05:55:07;96216.81;;;24.35;54.88
21821;BME280;11073;48.586;12.066;2022-08-05T05:57:41;96217.59;;;24.44;54.98
21821;BME280;11073;48.586;12.066;2022-08-05T06:00:20;96218.34;;;24.54;54.59
21821;BME280;11073;48.586;12.066;2022-08-05T06:03:00;96205.84;;;24.47;54.80
21821;BME280;11073;48.586;12.066;2022-08-05T06:05:50;96216.09;;;24.56;54.81
21821;BME280;11073;48.586;12.066;2022-08-05T06:08:22;96209.34;;;24.65;54.94
21821;BME280;11073;48.586;12.066;2022-08-05T06:11:00;96225.09;;;24.73;54.52
21821;BME280;11073;48.586;12.066;2022-08-05T06:13:30;96213.31;;;24.76;54.73
21821;BME280;11073;48.586;12.066;2022-08-05T06:16:17;96215.91;;;24.82;54.38
21821;BME280;11073;48.586;12.066;2022-08-05T06:18:59;96210.00;;;24.92;54.44
21821;BME280;11073;48.586;12.066;2022-08-05T06:21:32;96211.09;;;24.99;54.13
21821;BME280;11073;48.586;12.066;2022-08-05T06:24:04;96218.53;;;25.08;53.55
21821;BME280;11073;48.586;12.066;2022-08-05T06:26:40;96211.44;;;25.19;53.34
21821;BME280;11073;48.586;12.066;2022-08-05T06:29:19;96211.06;;;25.29;52.96
21821;BME280;11073;48.586;12.066;2022-08-05T06:32:09;96222.97;;;25.42;52.87
21821;BME280;11073;48.586;12.066;2022-08-05T06:34:52;96210.81;;;25.55;52.65
21821;BME280;11073;48.586;12.066;2022-08-05T06:37:24;96206.94;;;25.68;52.12
21821;BME280;11073;48.586;12.066;2022-08-05T06:40:14;96212.66;;;25.84;51.68
21821;BME280;11073;48.586;12.066;2022-08-05T06:42:49;96209.22;;;25.99;51.26
21821;BME280;11073;48.586;12.066;2022-08-05T06:45:19;96210.88;;;26.12;50.89
21821;BME280;11073;48.586;12.066;2022-08-05T06:48:09;96217.50;;;26.32;50.33
21821;BME280;11073;48.586;12.066;2022-08-05T06:50:58;96223.91;;;26.45;50.08
21821;BME280;11073;48.586;12.066;2022-08-05T06:53:27;96221.38;;;26.52;49.97
21821;BME280;11073;48.586;12.066;2022-08-05T06:55:56;96213.28;;;26.59;49.43
21821;BME280;11073;48.586;12.066;2022-08-05T06:58:27;96218.13;;;26.62;49.17
21821;BME280;11073;48.586;12.066;2022-08-05T07:01:04;96223.81;;;26.66;49.05
21821;BME280;11073;48.586;12.066;2022-08-05T07:03:33;96225.88;;;26.69;48.97
21821;BME280;11073;48.586;12.066;2022-08-05T07:06:02;96229.09;;;26.71;48.71
21821;BME280;11073;48.586;12.066;2022-08-05T07:08:42;96221.03;;;26.66;48.79
21821;BME280;11073;48.586;12.066;2022-08-05T07:11:18;96227.03;;;26.68;48.21
21821;BME280;11073;48.586;12.066;2022-08-05T07:13:53;96229.91;;;26.72;48.30
21821;BME280;11073;48.586;12.066;2022-08-05T07:16:57;96233.28;;;26.77;48.43
21821;BME280;11073;48.586;12.066;2022-08-05T07:19:49;96240.78;;;26.89;48.33
21821;BME280;11073;48.586;12.066;2022-08-05T07:22:40;96240.75;;;27.01;48.06
21821;BME280;11073;48.586;12.066;2022-08-05T07:25:11;96235.44;;;27.08;47.88
21821;BME280;11073;48.586;12.066;2022-08-05T07:28:00;96246.91;;;27.19;47.76
21821;BME280;11073;48.586;12.066;2022-08-05T07:30:40;96238.88;;;27.30;47.46
21821;BME280;11073;48.586;12.066;2022-08-05T07:33:10;96243.16;;;27.39;47.29
21821;BME280;11073;48.586;12.066;2022-08-05T07:35:43;96243.25;;;27.43;46.55
21821;BME280;11073;48.586;12.066;2022-08-05T07:38:31;96237.53;;;27.52;46.40
21821;BME280;11073;48.586;12.066;2022-08-05T07:41:13;96239.03;;;27.61;46.24
21821;BME280;11073;48.586;12.066;2022-08-05T07:44:04;96245.38;;;27.74;46.14
21821;BME280;11073;48.586;12.066;2022-08-05T07:46:46;96243.69;;;27.85;45.77
21821;BME280;11073;48.586;12.066;2022-08-05T07:49:17;96251.00;;;27.90;45.61
21821;BME280;11073;48.586;12.066;2022-08-05T07:51:46;96254.66;;;27.94;45.58
21821;BME280;11073;48.586;12.066;2022-08-05T07:54:22;96254.59;;;27.90;44.99
21821;BME280;11073;48.586;12.066;2022-08-05T07:57:00;96271.91;;;27.99;44.79
21821;BME280;11073;48.586;12.066;2022-08-05T07:59:48;96282.88;;;28.08;44.54
21821;BME280;11073;48.586;12.066;2022-08-05T08:02:22;96294.19;;;28.15;43.97
21821;BME280;11073;48.586;12.066;2022-08-05T08:04:57;96293.66;;;28.10;43.90
21821;BME280;11073;48.586;12.066;2022-08-05T08:07:27;96297.50;;;28.05;43.25
21821;BME280;11073;48.586;12.066;2022-08-05T08:10:16;96332.16;;;28.08;42.92
21821;BME280;11073;48.586;12.066;2022-08-05T08:12:47;96330.28;;;28.12;43.21
21821;BME280;11073;48.586;12.066;2022-08-05T08:15:16;96324.13;;;28.18;42.90
21821;BME280;11073;48.586;12.066;2022-08-05T08:18:06;96332.53;;;28.22;42.89
21821;BME280;11073;48.586;12.066;2022-08-05T08:20:40;96333.00;;;28.24;42.64
21821;BME280;11073;48.586;12.066;2022-08-05T08:23:30;96340.66;;;28.27;42.67
21821;BME280;11073;48.586;12.066;2022-08-05T08:26:19;96323.84;;;28.23;42.80
21821;BME280;11073;48.586;12.066;2022-08-05T08:28:56;96324.19;;;28.34;42.69
21821;BME280;11073;48.586;12.066;2022-08-05T08:31:45;96308.47;;;28.42;42.43
21821;BME280;11073;48.586;12.066;2022-08-05T08:34:16;96322.22;;;28.50;42.24
21821;BME280;11073;48.586;12.066;2022-08-05T08:36:59;96341.09;;;28.57;41.80
21821;BME280;11073;48.586;12.066;2022-08-05T08:39:31;96323.47;;;28.53;41.93
21821;BME280;11073;48.586;12.066;2022-08-05T08:42:05;96340.47;;;28.64;41.81
21821;BME280;11073;48.586;12.066;2022-08-05T08:44:57;96334.91;;;28.64;41.38
21821;BME280;11073;48.586;12.066;2022-08-05T08:47:49;96344.50;;;28.66;41.35
21821;BME280;11073;48.586;12.066;2022-08-05T08:50:42;96332.66;;;28.69;41.36
21821;BME280;11073;48.586;12.066;2022-08-05T08:53:35;96351.06;;;28.74;41.48
21821;BME280;11073;48.586;12.066;2022-08-05T08:56:10;96342.53;;;28.82;41.68
21821;BME280;11073;48.586;12.066;2022-08-05T08:58:40;96356.22;;;29.03;41.11
21821;BME280;11073;48.586;12.066;2022-08-05T09:01:14;96355.78;;;29.17;41.01
21821;BME280;11073;48.586;12.066;2022-08-05T09:03:45;96356.59;;;29.33;40.99
21821;BME280;11073;48.586;12.066;2022-08-05T09:06:20;96351.50;;;29.39;40.81
21821;BME280;11073;48.586;12.066;2022-08-05T09:08:56;96341.09;;;29.52;40.24
21821;BME280;11073;48.586;12.066;2022-08-05T09:11:26;96344.03;;;29.59;39.74
21821;BME280;11073;48.586;12.066;2022-08-05T09:14:15;96343.41;;;29.65;39.40
21821;BME280;11073;48.586;12.066;2022-08-05T09:17:06;96350.63;;;29.86;39.06
21821;BME280;11073;48.586;12.066;2022-08-05T09:19:42;96342.84;;;29.95;38.53
21821;BME280;11073;48.586;12.066;2022-08-05T09:23:05;96356.56;;;30.04;38.25
21821;BME280;11073;48.586;12.066;2022-08-05T09:25:37;96356.09;;;30.17;38.04
21821;BME280;11073;48.586;12.066;2022-08-05T09:28:26;96359.47;;;30.27;37.01
21821;BME280;11073;48.586;12.066;2022-08-05T09:31:04;96373.84;;;30.48;37.17
21821;BME280;11073;48.586;12.066;2022-08-05T09:33:54;96365.97;;;30.73;36.26
21821;BME280;11073;48.586;12.066;2022-08-05T09:36:37;96367.59;;;30.97;36.40
21821;BME280;11073;48.586;12.066;2022-08-05T09:39:25;96351.00;;;30.85;35.79
21821;BME280;11073;48.586;12.066;2022-08-05T09:42:13;96365.34;;;31.06;35.27
21821;BME280;11073;48.586;12.066;2022-08-05T09:44:52;96362.25;;;31.34;35.25
21821;BME280;11073;48.586;12.066;2022-08-05T09:47:24;96375.88;;;31.62;34.35
21821;BME280;11073;48.586;12.066;2022-08-05T09:50:17;96359.19;;;31.96;34.40
21821;BME280;11073;48.586;12.066;2022-08-05T09:53:06;96364.09;;;32.32;33.86
21821;BME280;11073;48.586;12.066;2022-08-05T09:55:57;96386.28;;;32.48;33.16
21821;BME280;11073;48.586;12.066;2022-08-05T09:58:31;96370.13;;;32.72;32.93
21821;BME280;11073;48.586;12.066;2022-08-05T10:01:01;96374.97;;;33.12;32.56
21821;BME280;11073;48.586;12.066;2022-08-05T10:03:56;96375.66;;;33.46;32.13
21821;BME280;11073;48.586;12.066;2022-08-05T10:06:27;96377.41;;;33.65;31.95
21821;BME280;11073;48.586;12.066;2022-08-05T10:09:10;96375.16;;;33.37;31.56
21821;BME280;11073;48.586;12.066;2022-08-05T10:12:06;96363.50;;;32.87;31.30
21821;BME280;11073;48.586;12.066;2022-08-05T10:15:12;96378.09;;;33.03;31.63
21821;BME280;11073;48.586;12.066;2022-08-05T10:17:45;96385.56;;;33.36;31.63
21821;BME280;11073;48.586;12.066;2022-08-05T10:20:30;96381.38;;;33.60;31.04
21821;BME280;11073;48.586;12.066;2022-08-05T10:23:00;96380.34;;;33.83;30.68
21821;BME280;11073;48.586;12.066;2022-08-05T10:25:29;96393.34;;;34.05;30.56
21821;BME280;11073;48.586;12.066;2022-08-05T10:28:00;96378.91;;;34.07;30.24
21821;BME280;11073;48.586;12.066;2022-08-05T10:30:45;96400.28;;;34.29;30.18
21821;BME280;11073;48.586;12.066;2022-08-05T10:33:34;96393.94;;;34.46;29.82
21821;BME280;11073;48.586;12.066;2022-08-05T10:36:06;96396.78;;;34.50;29.49
21821;BME280;11073;48.586;12.066;2022-08-05T10:38:36;96393.22;;;34.67;29.58
21821;BME280;11073;48.586;12.066;2022-08-05T10:41:16;96412.19;;;34.92;29.09
21821;BME280;11073;48.586;12.066;2022-08-05T10:43:54;96400.16;;;35.20;28.88
21821;BME280;11073;48.586;12.066;2022-08-05T10:46:42;96406.59;;;35.34;28.49
21821;BME280;11073;48.586;12.066;2022-08-05T10:49:17;96405.00;;;35.30;28.52
21821;BME280;11073;48.586;12.066;2022-08-05T10:51:55;96403.03;;;35.55;28.44
21821;BME280;11073;48.586;12.066;2022-08-05T10:54:46;96417.50;;;35.64;28.12
21821;BME280;11073;48.586;12.066;2022-08-05T10:57:26;96407.44;;;35.74;27.75
21821;BME280;11073;48.586;12.066;2022-08-05T11:00:10;96399.78;;;35.89;27.72
21821;BME280;11073;48.586;12.066;2022-08-05T11:03:11;96407.44;;;35.96;27.43
21821;BME280;11073;48.586;12.066;2022-08-05T11:06:08;96401.00;;;35.88;27.15
21821;BME280;11073;48.586;12.066;2022-08-05T11:09:18;96423.53;;;35.88;27.14
21821;BME280;11073;48.586;12.066;2022-08-05T11:12:41;96410.66;;;35.98;27.31
21821;BME280;11073;48.586;12.066;2022-08-05T11:15:25;96415.84;;;36.13;27.00
21821;BME280;11073;48.586;12.066;2022-08-05T11:18:25;96412.22;;;36.13;26.67
21821;BME280;11073;48.586;12.066;2022-08-05T11:20:56;96413.84;;;35.89;26.69
21821;BME280;11073;48.586;12.066;2022-08-05T11:23:30;96419.50;;;35.89;27.01
21821;BME280;11073;48.586;12.066;2022-08-05T11:26:20;96412.25;;;35.77;26.78
21821;BME280;11073;48.586;12.066;2022-08-05T11:29:01;96416.69;;;35.96;26.53
21821;BME280;11073;48.586;12.066;2022-08-05T11:31:42;96418.69;;;36.03;26.83
21821;BME280;11073;48.586;12.066;2022-08-05T11:34:39;96420.31;;;36.07;26.69
21821;BME280;11073;48.586;12.066;2022-08-05T11:37:41;96421.03;;;36.40;26.68
21821;BME280;11073;48.586;12.066;2022-08-05T11:40:59;96408.53;;;36.34;26.25
21821;BME280;11073;48.586;12.066;2022-08-05T11:43:55;96408.16;;;36.25;26.49
21821;BME280;11073;48.586;12.066;2022-08-05T11:46:36;96415.34;;;36.54;26.00
21821;BME280;11073;48.586;12.066;2022-08-05T11:49:27;96396.41;;;36.58;25.72
21821;BME280;11073;48.586;12.066;2022-08-05T11:52:00;96404.19;;;36.04;26.05
21821;BME280;11073;48.586;12.066;2022-08-05T11:54:38;96404.50;;;36.35;25.80
21821;BME280;11073;48.586;12.066;2022-08-05T11:57:15;96400.78;;;36.66;25.93
21821;BME280;11073;48.586;12.066;2022-08-05T12:00:24;96406.78;;;36.72;25.88
21821;BME280;11073;48.586;12.066;2022-08-05T12:02:54;96398.75;;;36.74;25.84
21821;BME280;11073;48.586;12.066;2022-08-05T12:05:26;96397.06;;;36.84;26.09
21821;BME280;11073;48.586;12.066;2022-08-05T12:08:04;96390.16;;;36.99;25.87
21821;BME280;11073;48.586;12.066;2022-08-05T12:10:38;96402.03;;;37.35;25.75
21821;BME280;11073;48.586;12.066;2022-08-05T12:13:15;96397.78;;;37.61;25.14
21821;BME280;11073;48.586;12.066;2022-08-05T12:16:06;96403.59;;;37.88;24.74
21821;BME280;11073;48.586;12.066;2022-08-05T12:18:41;96406.91;;;38.17;25.09
21821;BME280;11073;48.586;12.066;2022-08-05T12:21:22;96382.41;;;38.45;24.39
21821;BME280;11073;48.586;12.066;2022-08-05T12:24:01;96399.72;;;38.84;24.13
21821;BME280;11073;48.586;12.066;2022-08-05T12:26:35;96406.66;;;39.07;23.59
21821;BME280;11073;48.586;12.066;2022-08-05T12:29:06;96402.72;;;39.01;23.13
21821;BME280;11073;48.586;12.066;2022-08-05T12:31:47;96402.53;;;39.15;23.15
21821;BME280;11073;48.586;12.066;2022-08-05T12:34:22;96400.28;;;39.30;22.92
21821;BME280;11073;48.586;12.066;2022-08-05T12:36:58;96400.59;;;39.35;22.92
21821;BME280;11073;48.586;12.066;2022-08-05T12:39:31;96389.34;;;39.01;22.64
21821;BME280;11073;48.586;12.066;2022-08-05T12:42:09;96384.69;;;39.18;22.94
21821;BME280;11073;48.586;12.066;2022-08-05T12:44:41;96388.03;;;39.63;22.83
21821;BME280;11073;48.586;12.066;2022-08-05T12:47:10;96387.78;;;39.78;22.44
21821;BME280;11073;48.586;12.066;2022-08-05T12:49:44;96379.19;;;39.58;22.51
21821;BME280;11073;48.586;12.066;2022-08-05T12:52:34;96377.50;;;39.64;22.28
21821;BME280;11073;48.586;12.066;2022-08-05T12:55:19;96367.56;;;39.76;21.83
21821;BME280;11073;48.586;12.066;2022-08-05T12:57:52;96371.63;;;39.51;22.18
21821;BME280;11073;48.586;12.066;2022-08-05T13:00:41;96364.16;;;39.37;22.38
21821;BME280;11073;48.586;12.066;2022-08-05T13:03:30;96359.38;;;39.34;22.06
21821;BME280;11073;48.586;12.066;2022-08-05T13:06:06;96350.78;;;39.65;22.46
21821;BME280;11073;48.586;12.066;2022-08-05T13:08:39;96355.19;;;39.89;22.18
21821;BME280;11073;48.586;12.066;2022-08-05T13:11:22;96338.44;;;40.18;22.08
21821;BME280;11073;48.586;12.066;2022-08-05T13:14:20;96347.28;;;40.64;21.71
21821;BME280;11073;48.586;12.066;2022-08-05T13:17:07;96343.56;;;40.83;21.06
21821;BME280;11073;48.586;12.066;2022-08-05T13:19:36;96334.59;;;40.88;20.95
21821;BME280;11073;48.586;12.066;2022-08-05T13:22:20;96342.59;;;40.73;20.85
21821;BME280;11073;48.586;12.066;2022-08-05T13:24:59;96351.38;;;40.19;20.65
21821;BME280;11073;48.586;12.066;2022-08-05T13:27:35;96341.41;;;39.91;20.96
21821;BME280;11073;48.586;12.066;2022-08-05T13:30:07;96342.16;;;39.72;21.56
21821;BME280;11073;48.586;12.066;2022-08-05T13:32:56;96336.63;;;39.41;21.54
21821;BME280;11073;48.586;12.066;2022-08-05T13:35:28;96339.50;;;39.61;22.34
21821;BME280;11073;48.586;12.066;2022-08-05T13:38:17;96336.69;;;40.05;22.05
21821;BME280;11073;48.586;12.066;2022-08-05T13:41:04;96327.56;;;40.37;21.49
21821;BME280;11073;48.586;12.066;2022-08-05T13:43:33;96330.91;;;40.51;21.58
21821;BME280;11073;48.586;12.066;2022-08-05T13:46:21;96329.25;;;40.90;21.25
21821;BME280;11073;48.586;12.066;2022-08-05T13:49:10;96315.56;;;40.85;20.73
21821;BME280;11073;48.586;12.066;2022-08-05T13:51:40;96328.63;;;40.63;20.86
21821;BME280;11073;48.586;12.066;2022-08-05T13:54:14;96312.88;;;40.42;21.07